sensor_id;sensor_type;location;lat;lon;timestamp;P1;durP1;ratioP1;P2;durP2;ratioP2
39848;SDS011;25518;47.878;15.914;2024-01-30T00:40:44;6.93;;;2.88;;
39848;SDS011;25518;47.878;15.914;2024-01-30T00:43:36;7.63;;;3.05;;
39848;SDS011;25518;47.878;15.914;2024-01-30T00:46:28;6.97;;;3.10;;
39848;SDS011;25518;47.878;15.914;2024-01-30T00:49:20;6.07;;;2.85;;
39848;SDS011;25518;47.878;15.914;2024-01-30T00:52:11;7.40;;;2.85;;
39848;SDS011;25518;47.878;15.914;2024-01-30T00:55:03;5.47;;;3.08;;
39848;SDS011;25518;47.878;15.914;2024-01-30T00:57:55;4.72;;;2.20;;
39848;SDS011;25518;47.878;15.914;2024-01-30T01:00:46;6.17;;;2.40;;
39848;SDS011;25518;47.878;15.914;2024-01-30T01:03:38;5.88;;;2.67;;
39848;SDS011;25518;47.878;15.914;2024-01-30T01:06:31;5.05;;;2.97;;
39848;SDS011;25518;47.878;15.914;2024-01-30T01:09:23;5.10;;;2.57;;
39848;SDS011;25518;47.878;15.914;2024-01-30T01:12:14;3.78;;;1.75;;
39848;SDS011;25518;47.878;15.914;2024-01-30T01:15:06;4.75;;;2.30;;
39848;SDS011;25518;47.878;15.914;2024-01-30T01:18:00;5.33;;;2.33;;
39848;SDS011;25518;47.878;15.914;2024-01-30T01:20:51;6.72;;;2.95;;
39848;SDS011;25518;47.878;15.914;2024-01-30T01:23:43;4.67;;;2.47;;
39848;SDS011;25518;47.878;15.914;2024-01-30T01:26:35;4.53;;;2.08;;
39848;SDS011;25518;47.878;15.914;2024-01-30T01:29:26;5.63;;;3.10;;
39848;SDS011;25518;47.878;15.914;2024-01-30T01:32:19;5.50;;;2.88;;
39848;SDS011;25518;47.878;15.914;2024-01-30T01:35:12;6.93;;;2.80;;
39848;SDS011;25518;47.878;15.914;2024-01-30T01:38:03;7.88;;;3.05;;
39848;SDS011;25518;47.878;15.914;2024-01-30T01:40:55;6.18;;;2.63;;
39848;SDS011;25518;47.878;15.914;2024-01-30T01:43:46;6.47;;;2.58;;
39848;SDS011;25518;47.878;15.914;2024-01-30T01:46:38;5.45;;;2.70;;
39848;SDS011;25518;47.878;15.914;2024-01-30T01:49:30;5.97;;;2.55;;
39848;SDS011;25518;47.878;15.914;2024-01-30T01:52:21;6.22;;;2.70;;
39848;SDS011;25518;47.878;15.914;2024-01-30T01:55:13;6.32;;;2.20;;
39848;SDS011;25518;47.878;15.914;2024-01-30T01:58:05;5.65;;;2.15;;
39848;SDS011;25518;47.878;15.914;2024-01-30T02:00:58;6.20;;;2.92;;
39848;SDS011;25518;47.878;15.914;2024-01-30T02:03:50;6.20;;;2.60;;
39848;SDS011;25518;47.878;15.914;2024-01-30T02:06:42;6.07;;;2.47;;
39848;SDS011;25518;47.878;15.914;2024-01-30T02:09:35;5.90;;;2.38;;
39848;SDS011;25518;47.878;15.914;2024-01-30T02:12:26;5.18;;;2.40;;
39848;SDS011;25518;47.878;15.914;2024-01-30T02:15:18;5.13;;;2.70;;
39848;SDS011;25518;47.878;15.914;2024-01-30T02:18:09;4.63;;;2.40;;
39848;SDS011;25518;47.878;15.914;2024-01-30T02:21:04;5.25;;;2.25;;
39848;SDS011;25518;47.878;15.914;2024-01-30T02:23:56;3.97;;;2.15;;
39848;SDS011;25518;47.878;15.914;2024-01-30T02:26:49;6.60;;;2.40;;
39848;SDS011;25518;47.878;15.914;2024-01-30T02:29:41;4.35;;;2.50;;
39848;SDS011;25518;47.878;15.914;2024-01-30T02:32:32;3.95;;;1.95;;
39848;SDS011;25518;47.878;15.914;2024-01-30T02:35:24;4.53;;;2.25;;
39848;SDS011;25518;47.878;15.914;2024-01-30T02:38:16;5.93;;;2.20;;
39848;SDS011;25518;47.878;15.914;2024-01-30T02:41:07;5.47;;;2.65;;
39848;SDS011;25518;47.878;15.914;2024-01-30T02:43:59;4.82;;;2.38;;
39848;SDS011;25518;47.878;15.914;2024-01-30T02:46:51;4.68;;;2.00;;
39848;SDS011;25518;47.878;15.914;2024-01-30T02:49:44;5.80;;;2.13;;
39848;SDS011;25518;47.878;15.914;2024-01-30T02:52:36;4.43;;;1.98;;
39848;SDS011;25518;47.878;15.914;2024-01-30T02:55:27;3.28;;;1.92;;
39848;SDS011;25518;47.878;15.914;2024-01-30T02:58:19;5.38;;;2.67;;
39848;SDS011;25518;47.878;15.914;2024-01-30T03:01:11;4.82;;;2.47;;
39848;SDS011;25518;47.878;15.914;2024-01-30T03:04:02;4.55;;;1.80;;
39848;SDS011;25518;47.878;15.914;2024-01-30T03:06:54;4.95;;;2.17;;
39848;SDS011;25518;47.878;15.914;2024-01-30T03:09:45;6.05;;;2.25;;
39848;SDS011;25518;47.878;15.914;2024-01-30T03:12:37;5.38;;;2.20;;
39848;SDS011;25518;47.878;15.914;2024-01-30T03:15:29;3.45;;;1.92;;
39848;SDS011;25518;47.878;15.914;2024-01-30T03:18:20;6.72;;;2.42;;
39848;SDS011;25518;47.878;15.914;2024-01-30T03:21:12;4.20;;;2.25;;
39848;SDS011;25518;47.878;15.914;2024-01-30T03:24:03;5.43;;;2.53;;
39848;SDS011;25518;47.878;15.914;2024-01-30T03:26:55;4.68;;;2.22;;
39848;SDS011;25518;47.878;15.914;2024-01-30T03:29:47;5.07;;;2.10;;
39848;SDS011;25518;47.878;15.914;2024-01-30T03:32:38;4.85;;;1.90;;
39848;SDS011;25518;47.878;15.914;2024-01-30T03:35:30;4.47;;;2.03;;
39848;SDS011;25518;47.878;15.914;2024-01-30T03:38:21;4.70;;;1.98;;
39848;SDS011;25518;47.878;15.914;2024-01-30T03:41:13;3.60;;;1.80;;
39848;SDS011;25518;47.878;15.914;2024-01-30T03:44:05;5.70;;;2.20;;
39848;SDS011;25518;47.878;15.914;2024-01-30T03:46:57;4.87;;;1.87;;
39848;SDS011;25518;47.878;15.914;2024-01-30T03:49:49;3.80;;;1.85;;
39848;SDS011;25518;47.878;15.914;2024-01-30T03:52:40;5.60;;;2.10;;
39848;SDS011;25518;47.878;15.914;2024-01-30T03:55:32;4.30;;;1.95;;
39848;SDS011;25518;47.878;15.914;2024-01-30T03:58:24;4.05;;;1.60;;
39848;SDS011;25518;47.878;15.914;2024-01-30T04:01:15;4.60;;;2.10;;
39848;SDS011;25518;47.878;15.914;2024-01-30T04:04:07;4.43;;;2.03;;
39848;SDS011;25518;47.878;15.914;2024-01-30T04:06:58;4.50;;;1.83;;
39848;SDS011;25518;47.878;15.914;2024-01-30T04:09:50;4.05;;;2.00;;
39848;SDS011;25518;47.878;15.914;2024-01-30T04:12:42;3.15;;;1.73;;
39848;SDS011;25518;47.878;15.914;2024-01-30T04:15:34;4.25;;;1.63;;
39848;SDS011;25518;47.878;15.914;2024-01-30T04:18:25;3.20;;;1.83;;
39848;SDS011;25518;47.878;15.914;2024-01-30T04:21:17;4.88;;;2.15;;
39848;SDS011;25518;47.878;15.914;2024-01-30T04:24:09;5.37;;;2.00;;
39848;SDS011;25518;47.878;15.914;2024-01-30T04:27:00;5.38;;;2.00;;
39848;SDS011;25518;47.878;15.914;2024-01-30T04:29:52;3.63;;;1.55;;
39848;SDS011;25518;47.878;15.914;2024-01-30T04:32:44;4.90;;;2.13;;
39848;SDS011;25518;47.878;15.914;2024-01-30T04:35:36;4.18;;;2.13;;
39848;SDS011;25518;47.878;15.914;2024-01-30T04:38:27;3.63;;;1.65;;
39848;SDS011;25518;47.878;15.914;2024-01-30T04:41:19;4.30;;;2.45;;
39848;SDS011;25518;47.878;15.914;2024-01-30T04:44:10;6.22;;;2.55;;
39848;SDS011;25518;47.878;15.914;2024-01-30T04:47:02;5.63;;;2.88;;
39848;SDS011;25518;47.878;15.914;2024-01-30T04:49:55;4.72;;;2.10;;
39848;SDS011;25518;47.878;15.914;2024-01-30T04:52:47;6.30;;;2.40;;
39848;SDS011;25518;47.878;15.914;2024-01-30T04:55:39;4.65;;;2.10;;
39848;SDS011;25518;47.878;15.914;2024-01-30T04:58:30;5.10;;;2.00;;
39848;SDS011;25518;47.878;15.914;2024-01-30T05:01:22;6.13;;;2.60;;
39848;SDS011;25518;47.878;15.914;2024-01-30T05:04:13;4.57;;;1.57;;
39848;SDS011;25518;47.878;15.914;2024-01-30T05:07:05;4.38;;;1.83;;
39848;SDS011;25518;47.878;15.914;2024-01-30T05:09:57;3.13;;;1.70;;
39848;SDS011;25518;47.878;15.914;2024-01-30T05:12:48;4.32;;;2.13;;
39848;SDS011;25518;47.878;15.914;2024-01-30T05:15:40;4.95;;;1.65;;
39848;SDS011;25518;47.878;15.914;2024-01-30T05:18:31;3.55;;;1.70;;
39848;SDS011;25518;47.878;15.914;2024-01-30T05:21:23;4.30;;;1.92;;
39848;SDS011;25518;47.878;15.914;2024-01-30T05:24:15;5.20;;;2.58;;
39848;SDS011;25518;47.878;15.914;2024-01-30T09:38:46;5.07;;;1.58;;
39848;SDS011;25518;47.878;15.914;2024-01-30T09:41:42;6.00;;;2.50;;
39848;SDS011;25518;47.878;15.914;2024-01-30T09:44:37;6.88;;;2.50;;
39848;SDS011;25518;47.878;15.914;2024-01-30T09:47:33;5.05;;;2.35;;
39848;SDS011;25518;47.878;15.914;2024-01-30T09:50:30;5.40;;;2.65;;
39848;SDS011;25518;47.878;15.914;2024-01-30T09:53:22;4.53;;;2.10;;
39848;SDS011;25518;47.878;15.914;2024-01-30T09:56:13;4.43;;;2.13;;
39848;SDS011;25518;47.878;15.914;2024-01-30T09:59:05;3.50;;;1.73;;
39848;SDS011;25518;47.878;15.914;2024-01-30T10:01:57;5.05;;;2.22;;
39848;SDS011;25518;47.878;15.914;2024-01-30T10:04:49;5.68;;;2.38;;
39848;SDS011;25518;47.878;15.914;2024-01-30T10:07:49;5.85;;;2.50;;
39848;SDS011;25518;47.878;15.914;2024-01-30T10:10:41;4.45;;;2.50;;
39848;SDS011;25518;47.878;15.914;2024-01-30T10:13:32;7.68;;;3.50;;
39848;SDS011;25518;47.878;15.914;2024-01-30T10:16:24;4.60;;;3.03;;
39848;SDS011;25518;47.878;15.914;2024-01-30T10:19:16;8.05;;;3.90;;
39848;SDS011;25518;47.878;15.914;2024-01-30T10:22:07;7.57;;;3.25;;
39848;SDS011;25518;47.878;15.914;2024-01-30T10:25:00;7.55;;;4.03;;
39848;SDS011;25518;47.878;15.914;2024-01-30T10:27:53;8.52;;;3.85;;
39848;SDS011;25518;47.878;15.914;2024-01-30T10:30:45;8.48;;;3.70;;
39848;SDS011;25518;47.878;15.914;2024-01-30T10:33:37;7.30;;;3.65;;
39848;SDS011;25518;47.878;15.914;2024-01-30T10:36:29;7.05;;;3.25;;
39848;SDS011;25518;47.878;15.914;2024-01-30T10:39:21;6.63;;;2.80;;
39848;SDS011;25518;47.878;15.914;2024-01-30T10:42:17;6.55;;;2.95;;
39848;SDS011;25518;47.878;15.914;2024-01-30T10:45:09;7.18;;;3.67;;
39848;SDS011;25518;47.878;15.914;2024-01-30T10:48:03;7.53;;;3.42;;
39848;SDS011;25518;47.878;15.914;2024-01-30T10:50:56;7.83;;;3.57;;
39848;SDS011;25518;47.878;15.914;2024-01-30T10:53:49;11.32;;;3.30;;
39848;SDS011;25518;47.878;15.914;2024-01-30T10:56:41;6.55;;;3.00;;
39848;SDS011;25518;47.878;15.914;2024-01-30T10:59:33;8.43;;;3.67;;
39848;SDS011;25518;47.878;15.914;2024-01-30T11:02:25;6.55;;;3.67;;
39848;SDS011;25518;47.878;15.914;2024-01-30T11:05:25;6.03;;;3.13;;
39848;SDS011;25518;47.878;15.914;2024-01-30T11:08:24;8.93;;;3.33;;
39848;SDS011;25518;47.878;15.914;2024-01-30T11:11:18;5.80;;;2.80;;
39848;SDS011;25518;47.878;15.914;2024-01-30T11:14:09;7.25;;;3.20;;
39848;SDS011;25518;47.878;15.914;2024-01-30T11:17:01;6.45;;;3.10;;
39848;SDS011;25518;47.878;15.914;2024-01-30T11:19:54;6.85;;;3.50;;
39848;SDS011;25518;47.878;15.914;2024-01-30T11:22:47;6.03;;;2.50;;
39848;SDS011;25518;47.878;15.914;2024-01-30T11:25:39;5.97;;;2.50;;
39848;SDS011;25518;47.878;15.914;2024-01-30T11:28:32;4.57;;;2.67;;
39848;SDS011;25518;47.878;15.914;2024-01-30T11:31:25;6.17;;;2.77;;
39848;SDS011;25518;47.878;15.914;2024-01-30T11:34:17;4.28;;;2.63;;
39848;SDS011;25518;47.878;15.914;2024-01-30T11:37:09;4.60;;;2.35;;
39848;SDS011;25518;47.878;15.914;2024-01-30T11:40:03;5.83;;;2.50;;
39848;SDS011;25518;47.878;15.914;2024-01-30T11:42:56;4.57;;;2.50;;
39848;SDS011;25518;47.878;15.914;2024-01-30T11:45:49;4.85;;;2.58;;
39848;SDS011;25518;47.878;15.914;2024-01-30T11:48:41;5.50;;;2.75;;
39848;SDS011;25518;47.878;15.914;2024-01-30T11:51:33;5.97;;;3.10;;
39848;SDS011;25518;47.878;15.914;2024-01-30T11:54:24;6.18;;;3.28;;
39848;SDS011;25518;47.878;15.914;2024-01-30T11:57:16;5.78;;;3.38;;
39848;SDS011;25518;47.878;15.914;2024-01-30T12:00:23;11.20;;;4.33;;
39848;SDS011;25518;47.878;15.914;2024-01-30T12:03:14;6.05;;;3.15;;
39848;SDS011;25518;47.878;15.914;2024-01-30T12:06:06;5.68;;;3.03;;
39848;SDS011;25518;47.878;15.914;2024-01-30T12:08:58;4.97;;;2.83;;
39848;SDS011;25518;47.878;15.914;2024-01-30T12:11:50;6.43;;;3.60;;
39848;SDS011;25518;47.878;15.914;2024-01-30T12:14:42;6.90;;;3.40;;
39848;SDS011;25518;47.878;15.914;2024-01-30T12:17:33;4.80;;;2.33;;
39848;SDS011;25518;47.878;15.914;2024-01-30T12:20:25;6.65;;;3.10;;
39848;SDS011;25518;47.878;15.914;2024-01-30T12:23:17;7.03;;;3.13;;
39848;SDS011;25518;47.878;15.914;2024-01-30T12:26:11;6.50;;;3.35;;
39848;SDS011;25518;47.878;15.914;2024-01-30T12:29:03;5.72;;;2.83;;
39848;SDS011;25518;47.878;15.914;2024-01-30T12:31:55;6.53;;;2.85;;
39848;SDS011;25518;47.878;15.914;2024-01-30T12:49:04;4.75;;;2.72;;
39848;SDS011;25518;47.878;15.914;2024-01-30T12:51:56;7.20;;;3.10;;
39848;SDS011;25518;47.878;15.914;2024-01-30T13:46:21;9.20;;;4.35;;
39848;SDS011;25518;47.878;15.914;2024-01-30T14:09:18;7.80;;;4.28;;
39848;SDS011;25518;47.878;15.914;2024-01-30T14:15:03;9.20;;;4.45;;
39848;SDS011;25518;47.878;15.914;2024-01-30T14:17:54;9.45;;;4.53;;
39848;SDS011;25518;47.878;15.914;2024-01-30T14:20:46;6.30;;;3.65;;
39848;SDS011;25518;47.878;15.914;2024-01-30T14:23:38;8.50;;;4.43;;
39848;SDS011;25518;47.878;15.914;2024-01-30T14:26:30;9.23;;;4.90;;
39848;SDS011;25518;47.878;15.914;2024-01-30T14:29:22;8.15;;;4.22;;
39848;SDS011;25518;47.878;15.914;2024-01-30T14:32:13;9.65;;;4.07;;
39848;SDS011;25518;47.878;15.914;2024-01-30T14:35:05;10.02;;;4.90;;
39848;SDS011;25518;47.878;15.914;2024-01-30T14:37:57;7.37;;;4.40;;
39848;SDS011;25518;47.878;15.914;2024-01-30T14:40:48;7.33;;;3.43;;
39848;SDS011;25518;47.878;15.914;2024-01-30T14:43:40;7.70;;;4.15;;
39848;SDS011;25518;47.878;15.914;2024-01-30T14:46:31;11.70;;;4.15;;
39848;SDS011;25518;47.878;15.914;2024-01-30T14:49:23;7.50;;;3.85;;
39848;SDS011;25518;47.878;15.914;2024-01-30T14:52:15;8.13;;;4.18;;
39848;SDS011;25518;47.878;15.914;2024-01-30T14:55:06;6.47;;;3.25;;
39848;SDS011;25518;47.878;15.914;2024-01-30T14:57:58;7.35;;;3.92;;
39848;SDS011;25518;47.878;15.914;2024-01-30T15:00:50;7.07;;;3.85;;
39848;SDS011;25518;47.878;15.914;2024-01-30T15:03:41;7.73;;;3.70;;
39848;SDS011;25518;47.878;15.914;2024-01-30T15:06:34;7.15;;;3.95;;
39848;SDS011;25518;47.878;15.914;2024-01-30T15:09:25;8.65;;;3.92;;
39848;SDS011;25518;47.878;15.914;2024-01-30T15:12:17;7.70;;;4.15;;
39848;SDS011;25518;47.878;15.914;2024-01-30T15:15:09;8.40;;;3.75;;
39848;SDS011;25518;47.878;15.914;2024-01-30T15:18:00;8.13;;;4.10;;
39848;SDS011;25518;47.878;15.914;2024-01-30T15:20:52;12.47;;;3.40;;
39848;SDS011;25518;47.878;15.914;2024-01-30T15:23:43;10.50;;;4.28;;
39848;SDS011;25518;47.878;15.914;2024-01-30T15:26:35;6.82;;;3.72;;
39848;SDS011;25518;47.878;15.914;2024-01-30T15:29:27;7.82;;;3.47;;
39848;SDS011;25518;47.878;15.914;2024-01-30T15:32:19;8.90;;;3.60;;
39848;SDS011;25518;47.878;15.914;2024-01-30T15:35:10;7.57;;;4.00;;
39848;SDS011;25518;47.878;15.914;2024-01-30T15:38:02;7.10;;;3.67;;
39848;SDS011;25518;47.878;15.914;2024-01-30T15:40:55;7.53;;;3.50;;
39848;SDS011;25518;47.878;15.914;2024-01-30T15:43:46;5.97;;;3.28;;
39848;SDS011;25518;47.878;15.914;2024-01-30T15:46:38;8.18;;;3.38;;
39848;SDS011;25518;47.878;15.914;2024-01-30T15:49:30;6.57;;;3.30;;
39848;SDS011;25518;47.878;15.914;2024-01-30T15:52:21;7.57;;;3.90;;
39848;SDS011;25518;47.878;15.914;2024-01-30T15:55:13;8.07;;;3.83;;
39848;SDS011;25518;47.878;15.914;2024-01-30T15:58:05;6.97;;;4.20;;
39848;SDS011;25518;47.878;15.914;2024-01-30T16:00:57;6.50;;;3.53;;
39848;SDS011;25518;47.878;15.914;2024-01-30T16:03:49;8.70;;;3.75;;
39848;SDS011;25518;47.878;15.914;2024-01-30T16:06:41;7.60;;;3.67;;
39848;SDS011;25518;47.878;15.914;2024-01-30T16:09:33;7.55;;;3.55;;
39848;SDS011;25518;47.878;15.914;2024-01-30T16:12:25;5.85;;;3.35;;
39848;SDS011;25518;47.878;15.914;2024-01-30T16:15:16;7.72;;;3.40;;
39848;SDS011;25518;47.878;15.914;2024-01-30T16:18:09;7.82;;;3.60;;
39848;SDS011;25518;47.878;15.914;2024-01-30T16:21:01;7.25;;;3.75;;
39848;SDS011;25518;47.878;15.914;2024-01-30T16:23:52;8.40;;;3.63;;
39848;SDS011;25518;47.878;15.914;2024-01-30T16:26:44;10.33;;;4.40;;
39848;SDS011;25518;47.878;15.914;2024-01-30T16:29:36;12.93;;;4.13;;
39848;SDS011;25518;47.878;15.914;2024-01-30T16:32:28;5.72;;;3.33;;
39848;SDS011;25518;47.878;15.914;2024-01-30T16:35:21;8.98;;;3.97;;
39848;SDS011;25518;47.878;15.914;2024-01-30T16:38:13;10.70;;;4.85;;
39848;SDS011;25518;47.878;15.914;2024-01-30T16:55:22;10.93;;;5.10;;
39848;SDS011;25518;47.878;15.914;2024-01-30T16:58:16;9.88;;;5.43;;
39848;SDS011;25518;47.878;15.914;2024-01-30T17:01:07;8.18;;;4.03;;
39848;SDS011;25518;47.878;15.914;2024-01-30T17:03:59;8.50;;;4.05;;
39848;SDS011;25518;47.878;15.914;2024-01-30T17:06:50;10.23;;;4.40;;
39848;SDS011;25518;47.878;15.914;2024-01-30T17:09:43;11.13;;;5.60;;
39848;SDS011;25518;47.878;15.914;2024-01-30T17:12:34;9.13;;;4.83;;
39848;SDS011;25518;47.878;15.914;2024-01-30T17:15:26;11.10;;;5.75;;
39848;SDS011;25518;47.878;15.914;2024-01-30T17:18:18;13.07;;;5.45;;
39848;SDS011;25518;47.878;15.914;2024-01-30T17:21:15;11.67;;;4.53;;
39848;SDS011;25518;47.878;15.914;2024-01-30T17:24:07;9.60;;;4.47;;
39848;SDS011;25518;47.878;15.914;2024-01-30T17:26:59;7.32;;;4.38;;
39848;SDS011;25518;47.878;15.914;2024-01-30T17:29:51;11.00;;;4.68;;
39848;SDS011;25518;47.878;15.914;2024-01-30T17:32:43;7.15;;;3.75;;
39848;SDS011;25518;47.878;15.914;2024-01-30T17:35:34;10.17;;;4.30;;
39848;SDS011;25518;47.878;15.914;2024-01-30T17:38:26;7.72;;;4.32;;
39848;SDS011;25518;47.878;15.914;2024-01-30T17:41:18;8.45;;;4.03;;
39848;SDS011;25518;47.878;15.914;2024-01-30T17:44:09;8.88;;;3.75;;
39848;SDS011;25518;47.878;15.914;2024-01-30T17:47:02;8.30;;;3.75;;
39848;SDS011;25518;47.878;15.914;2024-01-30T17:49:54;9.00;;;4.10;;
39848;SDS011;25518;47.878;15.914;2024-01-30T17:52:45;7.93;;;3.75;;
39848;SDS011;25518;47.878;15.914;2024-01-30T17:55:39;6.22;;;3.25;;
39848;SDS011;25518;47.878;15.914;2024-01-30T17:58:31;8.00;;;3.85;;
39848;SDS011;25518;47.878;15.914;2024-01-30T18:01:23;9.50;;;4.18;;
39848;SDS011;25518;47.878;15.914;2024-01-30T18:04:17;7.47;;;3.88;;
39848;SDS011;25518;47.878;15.914;2024-01-30T18:07:09;9.13;;;4.07;;
39848;SDS011;25518;47.878;15.914;2024-01-30T18:10:01;9.57;;;4.15;;
39848;SDS011;25518;47.878;15.914;2024-01-30T18:12:52;6.75;;;3.15;;
39848;SDS011;25518;47.878;15.914;2024-01-30T18:15:46;5.63;;;3.28;;
39848;SDS011;25518;47.878;15.914;2024-01-30T18:18:38;7.30;;;3.28;;
39848;SDS011;25518;47.878;15.914;2024-01-30T18:21:29;6.80;;;3.90;;
39848;SDS011;25518;47.878;15.914;2024-01-30T18:24:21;9.15;;;4.13;;
39848;SDS011;25518;47.878;15.914;2024-01-30T18:27:15;7.07;;;3.58;;
39848;SDS011;25518;47.878;15.914;2024-01-30T18:30:07;8.33;;;3.90;;
39848;SDS011;25518;47.878;15.914;2024-01-30T18:32:58;7.80;;;3.63;;
39848;SDS011;25518;47.878;15.914;2024-01-30T18:35:50;7.80;;;3.17;;
39848;SDS011;25518;47.878;15.914;2024-01-30T18:38:42;9.18;;;3.75;;
39848;SDS011;25518;47.878;15.914;2024-01-30T18:41:33;9.98;;;4.53;;
39848;SDS011;25518;47.878;15.914;2024-01-30T18:50:08;9.32;;;4.18;;
39848;SDS011;25518;47.878;15.914;2024-01-30T18:52:59;10.30;;;3.60;;
39848;SDS011;25518;47.878;15.914;2024-01-30T19:30:09;8.02;;;3.45;;
39848;SDS011;25518;47.878;15.914;2024-01-30T19:33:01;6.38;;;2.92;;
39848;SDS011;25518;47.878;15.914;2024-01-30T19:35:52;11.68;;;4.65;;
39848;SDS011;25518;47.878;15.914;2024-01-30T19:38:45;7.88;;;3.60;;
39848;SDS011;25518;47.878;15.914;2024-01-30T19:41:36;7.90;;;4.03;;
39848;SDS011;25518;47.878;15.914;2024-01-30T19:44:29;7.15;;;3.92;;
39848;SDS011;25518;47.878;15.914;2024-01-30T19:47:20;8.70;;;4.65;;
39848;SDS011;25518;47.878;15.914;2024-01-30T19:50:12;7.55;;;3.38;;
39848;SDS011;25518;47.878;15.914;2024-01-30T19:53:04;11.00;;;5.72;;
39848;SDS011;25518;47.878;15.914;2024-01-30T19:55:55;9.38;;;4.95;;
39848;SDS011;25518;47.878;15.914;2024-01-30T19:58:47;8.63;;;4.43;;
39848;SDS011;25518;47.878;15.914;2024-01-30T20:01:38;10.25;;;5.40;;
39848;SDS011;25518;47.878;15.914;2024-01-30T20:04:30;13.18;;;5.75;;
39848;SDS011;25518;47.878;15.914;2024-01-30T20:07:22;10.60;;;5.65;;
39848;SDS011;25518;47.878;15.914;2024-01-30T20:10:13;9.38;;;5.53;;
39848;SDS011;25518;47.878;15.914;2024-01-30T20:13:05;12.63;;;5.78;;
39848;SDS011;25518;47.878;15.914;2024-01-30T20:15:56;11.43;;;5.97;;
39848;SDS011;25518;47.878;15.914;2024-01-30T20:18:49;13.35;;;6.22;;
39848;SDS011;25518;47.878;15.914;2024-01-30T20:21:40;11.45;;;5.05;;
39848;SDS011;25518;47.878;15.914;2024-01-30T20:24:33;11.20;;;5.25;;
39848;SDS011;25518;47.878;15.914;2024-01-30T20:27:25;9.70;;;4.57;;
39848;SDS011;25518;47.878;15.914;2024-01-30T20:30:17;12.07;;;5.70;;
39848;SDS011;25518;47.878;15.914;2024-01-30T20:33:12;13.75;;;6.20;;
39848;SDS011;25518;47.878;15.914;2024-01-30T20:36:06;12.20;;;6.18;;
39848;SDS011;25518;47.878;15.914;2024-01-30T20:38:58;12.27;;;5.80;;
39848;SDS011;25518;47.878;15.914;2024-01-30T20:41:50;18.92;;;9.07;;
39848;SDS011;25518;47.878;15.914;2024-01-30T20:44:41;17.33;;;7.93;;
39848;SDS011;25518;47.878;15.914;2024-01-30T20:47:33;12.20;;;7.32;;
39848;SDS011;25518;47.878;15.914;2024-01-30T20:50:25;10.65;;;6.28;;
39848;SDS011;25518;47.878;15.914;2024-01-30T20:53:16;16.50;;;7.53;;
39848;SDS011;25518;47.878;15.914;2024-01-30T20:56:08;16.70;;;8.57;;
39848;SDS011;25518;47.878;15.914;2024-01-30T20:59:00;20.20;;;10.07;;
39848;SDS011;25518;47.878;15.914;2024-01-30T21:01:51;16.30;;;8.13;;
39848;SDS011;25518;47.878;15.914;2024-01-30T21:04:43;14.05;;;7.93;;
39848;SDS011;25518;47.878;15.914;2024-01-30T21:07:35;12.98;;;7.10;;
39848;SDS011;25518;47.878;15.914;2024-01-30T21:10:26;13.45;;;6.95;;
39848;SDS011;25518;47.878;15.914;2024-01-30T21:13:18;12.32;;;6.85;;
39848;SDS011;25518;47.878;15.914;2024-01-30T21:16:09;12.55;;;6.22;;
39848;SDS011;25518;47.878;15.914;2024-01-30T21:19:01;12.83;;;7.03;;
39848;SDS011;25518;47.878;15.914;2024-01-30T21:21:53;13.07;;;6.82;;
39848;SDS011;25518;47.878;15.914;2024-01-30T21:24:44;14.85;;;8.13;;
39848;SDS011;25518;47.878;15.914;2024-01-30T21:27:36;12.80;;;6.43;;
39848;SDS011;25518;47.878;15.914;2024-01-30T21:30:29;15.00;;;8.20;;
39848;SDS011;25518;47.878;15.914;2024-01-30T21:33:20;11.30;;;5.90;;
39848;SDS011;25518;47.878;15.914;2024-01-30T21:36:12;11.80;;;6.27;;
39848;SDS011;25518;47.878;15.914;2024-01-30T21:39:03;11.15;;;6.75;;
39848;SDS011;25518;47.878;15.914;2024-01-30T21:41:55;12.13;;;5.95;;
39848;SDS011;25518;47.878;15.914;2024-01-30T21:44:47;13.68;;;6.13;;
39848;SDS011;25518;47.878;15.914;2024-01-30T21:47:38;15.47;;;7.40;;
39848;SDS011;25518;47.878;15.914;2024-01-30T21:50:30;13.50;;;6.38;;
39848;SDS011;25518;47.878;15.914;2024-01-30T21:53:21;9.50;;;5.07;;
39848;SDS011;25518;47.878;15.914;2024-01-30T21:56:13;15.73;;;7.90;;
39848;SDS011;25518;47.878;15.914;2024-01-30T21:59:05;13.10;;;6.95;;
39848;SDS011;25518;47.878;15.914;2024-01-30T22:01:56;13.23;;;6.63;;
39848;SDS011;25518;47.878;15.914;2024-01-30T22:04:48;10.63;;;6.28;;
39848;SDS011;25518;47.878;15.914;2024-01-30T22:07:40;12.43;;;6.22;;
39848;SDS011;25518;47.878;15.914;2024-01-30T22:10:32;14.23;;;6.60;;
39848;SDS011;25518;47.878;15.914;2024-01-30T22:13:23;10.95;;;5.45;;
39848;SDS011;25518;47.878;15.914;2024-01-30T22:16:15;10.50;;;5.50;;
39848;SDS011;25518;47.878;15.914;2024-01-30T22:19:07;10.75;;;6.22;;
39848;SDS011;25518;47.878;15.914;2024-01-30T22:22:00;10.85;;;5.80;;
39848;SDS011;25518;47.878;15.914;2024-01-30T22:24:52;12.02;;;4.97;;
39848;SDS011;25518;47.878;15.914;2024-01-30T22:27:44;9.73;;;5.05;;
39848;SDS011;25518;47.878;15.914;2024-01-30T22:30:36;10.18;;;5.30;;
39848;SDS011;25518;47.878;15.914;2024-01-30T22:33:27;11.80;;;4.90;;
39848;SDS011;25518;47.878;15.914;2024-01-30T22:36:19;8.43;;;3.65;;
39848;SDS011;25518;47.878;15.914;2024-01-30T22:39:10;8.85;;;4.35;;
39848;SDS011;25518;47.878;15.914;2024-01-30T22:42:03;7.07;;;3.83;;
39848;SDS011;25518;47.878;15.914;2024-01-30T22:44:54;7.70;;;4.10;;
39848;SDS011;25518;47.878;15.914;2024-01-30T22:47:46;9.95;;;3.80;;
39848;SDS011;25518;47.878;15.914;2024-01-30T22:50:39;5.40;;;3.30;;
39848;SDS011;25518;47.878;15.914;2024-01-30T22:53:31;7.10;;;3.20;;
39848;SDS011;25518;47.878;15.914;2024-01-30T22:56:23;8.27;;;3.58;;
39848;SDS011;25518;47.878;15.914;2024-01-30T22:59:14;8.88;;;3.63;;
39848;SDS011;25518;47.878;15.914;2024-01-30T23:02:06;5.55;;;2.88;;
39848;SDS011;25518;47.878;15.914;2024-01-30T23:04:58;6.72;;;3.75;;
39848;SDS011;25518;47.878;15.914;2024-01-30T23:07:50;8.13;;;4.18;;
39848;SDS011;25518;47.878;15.914;2024-01-30T23:10:42;10.47;;;4.90;;
39848;SDS011;25518;47.878;15.914;2024-01-30T23:13:33;8.70;;;3.75;;
39848;SDS011;25518;47.878;15.914;2024-01-30T23:16:25;8.75;;;4.50;;
39848;SDS011;25518;47.878;15.914;2024-01-30T23:19:16;9.55;;;3.92;;
39848;SDS011;25518;47.878;15.914;2024-01-30T23:22:08;8.57;;;3.58;;
39848;SDS011;25518;47.878;15.914;2024-01-30T23:25:00;8.52;;;3.60;;
39848;SDS011;25518;47.878;15.914;2024-01-30T23:27:51;7.30;;;3.80;;
39848;SDS011;25518;47.878;15.914;2024-01-30T23:30:43;9.35;;;4.40;;
39848;SDS011;25518;47.878;15.914;2024-01-30T23:33:34;8.25;;;4.20;;
39848;SDS011;25518;47.878;15.914;2024-01-30T23:36:26;8.32;;;3.70;;
39848;SDS011;25518;47.878;15.914;2024-01-30T23:39:18;6.95;;;3.95;;
39848;SDS011;25518;47.878;15.914;2024-01-30T23:42:10;5.30;;;3.03;;
39848;SDS011;25518;47.878;15.914;2024-01-30T23:45:04;6.93;;;3.40;;
39848;SDS011;25518;47.878;15.914;2024-01-30T23:47:56;5.43;;;3.20;;
39848;SDS011;25518;47.878;15.914;2024-01-30T23:50:48;6.60;;;3.63;;
39848;SDS011;25518;47.878;15.914;2024-01-30T23:53:40;6.83;;;3.70;;
39848;SDS011;25518;47.878;15.914;2024-01-30T23:56:31;6.28;;;3.45;;
39848;SDS011;25518;47.878;15.914;2024-01-30T23:59:23;8.75;;;3.47;;
